Naomi, Kentucky
Current Conditions -  °F | °C
As of 8:15 AM on Thursday 27 Nov 2014 (Local Time) from KSME Reporting Station
Overcast Overcast  
Wind Chill: -3°   Ceiling: 2100
Heat Index:   Visibility: 10mi
Dew Point:   Wind: 6mph
Humidity: 100%   Direction: 330°NNW
Pressure: 30.24"   Gusts: NA
Location:  37.0701°N, 84.793°W
Report Text: KSME 271315Z AUTO 33005KT 10SM SCT014 OVC021 00/00 A3024 RMK AO2
Loading
Personal Weather Stations






























Interactive Weather Map New forecast layout! Learn more

10-Day Weather Forecast

Advertisements
Track Severe Weather on mobile